LIRQ Airport Information

Runway Information
Runway 05 Length 5425 ft width 98 ft
Elevation 123 ft Threshold 492 ft Heading 48
Runway 23 Length 5425 ft Width 98 ft
Elevation 132 ft Threshold 2287 ft Heading 228
Airport Frequencies
Type APP Name APP Frequency 126.075 MHZ
Type ATIS Name ATIS Frequency 129.35 MHZ
Type TWR Name FIRENZE TW Frequency 118.3 MHZ
Airport Navaids
Type VOR-DME Name Peretola Frequency 112500 KHZ
Airport Weather Information & NOTAM
ADDS - METARS form results

(1457 UTC 19 May 2022)
Data provider http://aviationweather.gov/metar/data/
 
METAR text: LIRQ 191450Z 03003KT 340V100 CAVOK 31/08 Q1023
Conditions at: LIRQ (FIRENZE/PERETOLA, IT) observed 1450 UTC 19 May 2022
Temperature: 31.0°C (88°F)
Dewpoint: 8.0°C (46°F) [RH = 24%]
Pressure (altimeter): 30.21 inches Hg (1023.0 mb)
Winds: from the NNE (30 degrees) at 3 MPH (3 knots; 1.5 m/s)
Visibility: 6 or more miles (10+ km)
Ceiling: ceiling and visibility are OK
Clouds: unknown
Weather: no significant weather observed at this time

METAR text: LIRQ 191420Z 10003KT 010V170 CAVOK 30/07 Q1023
Conditions at: LIRQ (FIRENZE/PERETOLA, IT) observed 1420 UTC 19 May 2022
Temperature: 30.0°C (86°F)
Dewpoint: 7.0°C (45°F) [RH = 24%]
Pressure (altimeter): 30.21 inches Hg (1023.0 mb)
Winds: from the E (100 degrees) at 3 MPH (3 knots; 1.5 m/s)
Visibility: 6 or more miles (10+ km)
Ceiling: ceiling and visibility are OK
Clouds: unknown
Weather: no significant weather observed at this time

Forecast for: LIRQ (FIRENZE/PERETOLA, IT)
Text: TAF LIRQ 191100Z 1912/2012 VRB05KT CAVOK
Forecast period: 1200 UTC 19 May 2022 to 1000 UTC 20 May 2022
Forecast type: FROM: standard forecast or significant change
Winds: variable direction winds at 6 MPH (5 knots; 2.6 m/s)
Visibility: 6 or more miles (10+ km)
Ceiling: unknown
Clouds: missing
Weather: NSW  (no significant weather)
Text: BECMG 2010/2012 25010KT
Forecast period: 1000 to 1200 UTC 20 May 2022
Forecast type: BECOMING: Conditions expected to become as follows by 1200 UTC 20 May 2022
Winds: from the WSW (250 degrees) at 12 MPH (10 knots; 5.1 m/s)
Visibility: 6 or more miles (10+ km)
Ceiling: unknown
Clouds: missing
Weather: NSW  (no significant weather)